Terminal Aerodrome Forecast
Issued by NWS

Home | Current Version | Previous Version | Text Only | Print | Product List | Glossary On
Versions: 1 2 3 4 5 6 7 8 9 10 11 12 13 14 15 16 17 18 19 20 21
000
FTUS44 KTSA 251728
TAFFYV
TAF
KFYV 251728Z 2518/2618 17006KT P6SM SKC
     FM260100 00000KT P6SM SKC
     FM260600 00000KT 4SM BR SCT100
     FM261400 17005KT P6SM SCT120=

USA.gov is the U.S. government's official web portal to all federal, state and local government web resources and services.